createdAt,value
2023-03-16T00:02:26.715Z,69.13
2023-03-16T00:04:55.086Z,69.25
2023-03-16T00:07:21.869Z,69.18
2023-03-16T00:09:48.481Z,69.45
2023-03-16T00:12:17.291Z,69.21
2023-03-16T00:14:48.461Z,69.14
2023-03-16T00:17:20.625Z,69.34
2023-03-16T00:19:55.696Z,69.56
2023-03-16T00:22:24.932Z,69.45
2023-03-16T00:24:52.843Z,69.76
2023-03-16T00:27:22.913Z,69.54
2023-03-16T00:29:55.907Z,69.79
2023-03-16T00:32:35.876Z,69.81
2023-03-16T00:35:09.376Z,69.80
2023-03-16T00:37:39.823Z,69.71
2023-03-16T00:40:08.044Z,70.34
2023-03-16T00:42:37.464Z,70.00
2023-03-16T00:45:05.883Z,69.88
2023-03-16T00:47:34.196Z,69.96
2023-03-16T00:50:01.966Z,70.47
2023-03-16T00:52:29.473Z,70.04
2023-03-16T00:54:59.243Z,70.57
2023-03-16T00:57:27.747Z,70.40
2023-03-16T00:59:54.458Z,70.43
2023-03-16T01:02:23.748Z,70.33
2023-03-16T01:04:54.787Z,70.34
2023-03-16T01:07:22.008Z,70.76
2023-03-16T01:09:49.091Z,70.35
2023-03-16T01:12:18.506Z,70.41
2023-03-16T01:14:47.981Z,71.03
2023-03-16T01:17:16.502Z,70.69
2023-03-16T01:19:43.838Z,70.76
2023-03-16T01:22:11.652Z,70.94
2023-03-16T01:24:40.118Z,70.95
2023-03-16T01:27:07.870Z,70.90
2023-03-16T01:29:34.720Z,71.15
2023-03-16T01:32:04.423Z,71.00
2023-03-16T01:34:32.106Z,71.07
2023-03-16T01:36:59.167Z,71.25
2023-03-16T01:39:25.943Z,71.38
2023-03-16T01:41:53.350Z,71.20
2023-03-16T01:44:32.819Z,71.34
2023-03-16T01:46:59.508Z,71.04
2023-03-16T01:49:33.611Z,71.29
2023-03-16T01:52:02.616Z,70.78
2023-03-16T01:54:37.853Z,71.06
2023-03-16T01:57:07.611Z,71.25
2023-03-16T01:59:47.060Z,71.04
2023-03-16T02:02:19.248Z,71.06
2023-03-16T02:05:08.113Z,71.14
2023-03-16T02:07:43.700Z,71.33
2023-03-16T02:10:14.212Z,70.98
2023-03-16T02:12:40.924Z,71.10
2023-03-16T02:15:08.204Z,71.31
2023-03-16T02:17:36.523Z,71.65
2023-03-16T02:20:09.630Z,71.82
2023-03-16T02:22:42.233Z,71.67
2023-03-16T02:25:14.122Z,71.86
2023-03-16T02:27:46.860Z,71.95
2023-03-16T02:30:16.109Z,71.92
2023-03-16T02:32:47.428Z,72.16
2023-03-16T02:35:16.706Z,71.85
2023-03-16T02:37:43.680Z,72.24
2023-03-16T02:40:26.961Z,72.56
2023-03-16T02:43:02.959Z,72.45
2023-03-16T02:45:36.197Z,72.21
2023-03-16T02:48:09.544Z,72.66
2023-03-16T02:50:37.110Z,72.63
2023-03-16T02:53:06.152Z,72.56
2023-03-16T02:55:33.501Z,72.87
2023-03-16T02:58:02.642Z,73.22
2023-03-16T03:00:30.271Z,73.48
2023-03-16T03:02:59.184Z,73.36
2023-03-16T03:05:27.944Z,73.44
2023-03-16T03:07:54.635Z,73.28
2023-03-16T03:10:24.104Z,73.87
2023-03-16T03:12:53.067Z,73.79
2023-03-16T03:15:22.543Z,73.85
2023-03-16T03:17:49.594Z,73.52
2023-03-16T03:20:21.624Z,73.63
2023-03-16T03:22:50.026Z,73.72
2023-03-16T03:25:20.030Z,73.93
2023-03-16T03:27:48.915Z,74.21
2023-03-16T03:30:19.792Z,74.50
2023-03-16T03:32:46.627Z,74.25
2023-03-16T03:35:15.349Z,74.47
2023-03-16T03:37:45.999Z,74.22
2023-03-16T03:40:15.276Z,74.79
2023-03-16T03:42:43.091Z,74.16
2023-03-16T03:45:15.819Z,74.53
2023-03-16T03:47:43.959Z,74.92
2023-03-16T03:50:13.772Z,74.96
2023-03-16T03:52:40.688Z,74.58
2023-03-16T03:55:07.904Z,75.10
2023-03-16T03:57:34.698Z,75.05
2023-03-16T04:00:01.307Z,75.35
2023-03-16T04:02:30.529Z,75.39
2023-03-16T04:04:57.311Z,75.01
2023-03-16T04:07:23.992Z,75.14
2023-03-16T04:09:55.057Z,75.16
2023-03-16T04:12:24.534Z,75.25
2023-03-16T04:14:54.528Z,75.38
2023-03-16T04:17:21.169Z,75.59
2023-03-16T04:19:48.261Z,75.54
2023-03-16T04:22:14.853Z,75.55
2023-03-16T04:24:43.264Z,75.19
2023-03-16T04:27:12.178Z,75.21
2023-03-16T04:29:39.195Z,75.41
2023-03-16T04:32:11.625Z,75.46
2023-03-16T04:34:39.733Z,75.10
2023-03-16T04:37:06.555Z,75.48
2023-03-16T04:39:33.251Z,75.26
2023-03-16T04:42:02.426Z,75.36
2023-03-16T04:44:29.140Z,75.42
2023-03-16T04:46:59.183Z,75.68
2023-03-16T04:49:31.107Z,75.44
2023-03-16T04:52:01.011Z,75.56
2023-03-16T04:54:27.998Z,75.99
2023-03-16T04:56:54.596Z,75.68
2023-03-16T04:59:21.325Z,75.45
2023-03-16T05:01:50.357Z,75.83
2023-03-16T05:04:19.544Z,75.81
2023-03-16T05:06:46.625Z,76.13
2023-03-16T05:09:14.138Z,76.01
2023-03-16T05:11:40.863Z,75.96
2023-03-16T05:14:09.647Z,76.25
2023-03-16T05:16:36.265Z,76.02
2023-03-16T05:19:04.260Z,76.21
2023-03-16T05:21:32.302Z,75.87
2023-03-16T05:23:58.992Z,76.33
2023-03-16T05:26:27.834Z,76.22
2023-03-16T05:28:58.270Z,76.51
2023-03-16T05:31:27.698Z,76.27
2023-03-16T05:33:54.432Z,76.65
2023-03-16T05:36:21.046Z,76.76
2023-03-16T05:38:49.782Z,77.12
2023-03-16T05:41:18.355Z,76.49
2023-03-16T05:43:45.390Z,76.77
2023-03-16T05:46:14.264Z,77.04
2023-03-16T05:48:45.790Z,76.79
2023-03-16T05:51:14.024Z,76.96
2023-03-16T05:53:40.741Z,76.77
2023-03-16T05:56:07.609Z,77.13
2023-03-16T05:58:34.286Z,77.03
2023-03-16T06:01:05.499Z,77.08
2023-03-16T06:03:34.843Z,76.93
2023-03-16T06:06:02.183Z,77.12
2023-03-16T06:08:28.863Z,77.01
2023-03-16T06:10:55.519Z,77.52
2023-03-16T06:13:22.103Z,77.37
2023-03-16T06:15:50.915Z,77.37
2023-03-16T06:18:17.563Z,77.52
2023-03-16T06:20:47.330Z,77.90
2023-03-16T06:23:16.768Z,77.42
2023-03-16T06:25:46.620Z,77.78
2023-03-16T06:28:13.564Z,77.67
2023-03-16T06:30:47.466Z,77.60
2023-03-16T06:33:14.271Z,77.21
2023-03-16T06:35:41.652Z,77.45
2023-03-16T06:38:08.212Z,77.46
2023-03-16T06:40:35.999Z,77.80
2023-03-16T06:43:06.401Z,77.62
2023-03-16T06:45:36.190Z,77.59
2023-03-16T06:48:03.360Z,77.42
2023-03-16T06:50:30.460Z,77.40
2023-03-16T06:52:57.170Z,77.46
2023-03-16T06:55:23.748Z,77.40
2023-03-16T06:57:50.424Z,77.45
2023-03-16T07:00:17.438Z,77.41
2023-03-16T07:02:44.223Z,77.48
2023-03-16T07:05:13.284Z,77.47
2023-03-16T07:07:42.850Z,77.34
2023-03-16T07:10:15.164Z,77.17
2023-03-16T07:12:42.532Z,77.19
2023-03-16T07:15:12.637Z,77.13
2023-03-16T07:17:43.114Z,77.18
2023-03-16T07:20:11.460Z,77.10
2023-03-16T07:22:39.580Z,77.05
2023-03-16T07:25:07.322Z,76.92
2023-03-16T07:27:33.974Z,76.92
2023-03-16T07:30:05.125Z,76.82
2023-03-16T07:32:32.742Z,76.92
2023-03-16T07:35:04.138Z,76.83
2023-03-16T07:37:30.825Z,76.82
2023-03-16T07:39:57.557Z,76.80
2023-03-16T07:42:24.121Z,76.73
2023-03-16T07:44:53.270Z,76.89
2023-03-16T07:47:20.480Z,77.06
2023-03-16T07:49:49.495Z,76.75
2023-03-16T07:52:18.735Z,76.79
2023-03-16T07:54:48.925Z,76.95
2023-03-16T07:57:18.178Z,76.99
2023-03-16T07:59:44.759Z,77.02
2023-03-16T08:02:17.240Z,78.80
2023-03-16T08:04:46.756Z,77.94
2023-03-16T08:07:15.762Z,77.33
2023-03-16T08:09:42.512Z,77.31
2023-03-16T08:12:10.258Z,76.95
2023-03-16T08:14:37.632Z,76.78
2023-03-16T08:17:07.268Z,76.37
2023-03-16T08:19:34.032Z,76.06
2023-03-16T08:22:03.688Z,75.88
2023-03-16T08:24:31.112Z,75.75
2023-03-16T08:27:03.693Z,75.72
2023-03-16T08:29:30.649Z,75.63
2023-03-16T08:31:57.635Z,75.73
2023-03-16T08:34:24.897Z,75.62
2023-03-16T08:36:51.593Z,75.55
2023-03-16T08:39:18.275Z,75.28
2023-03-16T08:41:45.936Z,74.52
2023-03-16T08:44:14.943Z,74.31
2023-03-16T08:46:42.605Z,74.31
2023-03-16T08:49:09.430Z,74.11
2023-03-16T08:51:37.475Z,73.47
2023-03-16T08:54:04.252Z,73.58
2023-03-16T08:56:30.941Z,72.85
2023-03-16T08:58:59.880Z,73.13
2023-03-16T09:01:29.814Z,72.98
2023-03-16T09:03:56.449Z,72.78
2023-03-16T09:06:25.310Z,73.25
2023-03-16T09:08:51.922Z,72.92
2023-03-16T09:11:19.769Z,72.87
2023-03-16T09:13:47.333Z,72.55
2023-03-16T09:16:17.884Z,72.43
2023-03-16T09:18:44.513Z,72.26
2023-03-16T09:21:13.794Z,72.05
2023-03-16T09:23:43.137Z,71.97
2023-03-16T09:26:10.845Z,71.34
2023-03-16T09:28:38.902Z,70.06
2023-03-16T09:31:09.078Z,68.78
2023-03-16T09:33:38.672Z,66.84
2023-03-16T09:36:05.689Z,66.02
2023-03-16T09:38:33.049Z,65.63
2023-03-16T09:41:13.437Z,66.19
2023-03-16T09:43:46.139Z,66.37
2023-03-16T09:46:19.132Z,65.99
2023-03-16T09:48:47.430Z,66.29
2023-03-16T09:51:23.176Z,65.60
2023-03-16T09:53:58.816Z,65.31
2023-03-16T09:56:32.028Z,65.04
2023-03-16T09:58:59.260Z,64.58
2023-03-16T10:01:54.800Z,63.89
2023-03-16T10:04:25.043Z,63.73
2023-03-16T10:06:54.549Z,63.33
2023-03-16T10:09:39.660Z,63.19
2023-03-16T10:12:08.757Z,62.61
2023-03-16T10:14:41.187Z,62.12
2023-03-16T10:17:19.372Z,61.96
2023-03-16T10:19:51.440Z,62.11
2023-03-16T10:22:23.499Z,62.51
2023-03-16T10:25:07.634Z,62.26
2023-03-16T10:27:37.077Z,61.72
2023-03-16T10:30:18.816Z,61.57
2023-03-16T10:32:49.522Z,61.26
2023-03-16T10:35:40.641Z,61.57
2023-03-16T10:38:26.627Z,61.94
2023-03-16T10:40:54.097Z,61.56
2023-03-16T10:43:20.827Z,61.34
2023-03-16T10:45:47.617Z,61.09
2023-03-16T10:48:21.988Z,60.53
2023-03-16T10:50:52.150Z,60.23
2023-03-16T10:53:23.795Z,59.79
2023-03-16T10:55:51.446Z,59.73
2023-03-16T10:58:36.918Z,59.60
2023-03-16T11:01:11.016Z,59.38
2023-03-16T11:03:41.627Z,58.76
2023-03-16T11:06:20.576Z,58.63
2023-03-16T11:08:47.835Z,58.25
2023-03-16T11:11:20.764Z,57.99
2023-03-16T11:13:57.690Z,57.79
2023-03-16T11:16:39.841Z,57.62
2023-03-16T11:19:15.853Z,57.44
2023-03-16T11:22:04.230Z,57.19
2023-03-16T11:25:10.634Z,56.86
2023-03-16T11:27:56.600Z,56.77
2023-03-16T11:30:35.334Z,56.63
2023-03-16T11:33:02.128Z,56.43
2023-03-16T11:35:59.420Z,56.27
2023-03-16T11:39:05.742Z,56.43
2023-03-16T11:41:51.809Z,56.10
2023-03-16T11:44:25.844Z,56.03
2023-03-16T11:47:03.433Z,56.13
2023-03-16T11:49:42.960Z,55.48
2023-03-16T11:52:23.512Z,54.94
2023-03-16T11:55:38.521Z,55.63
2023-03-16T11:58:17.268Z,54.92
2023-03-16T12:01:13.441Z,54.67
2023-03-16T12:04:05.037Z,54.36
2023-03-16T12:06:35.147Z,54.73
2023-03-16T12:09:14.896Z,53.75
2023-03-16T12:11:42.482Z,53.26
2023-03-16T12:14:40.223Z,53.47
2023-03-16T12:17:13.846Z,53.09
2023-03-16T12:19:50.450Z,52.58
2023-03-16T12:22:20.096Z,52.38
2023-03-16T12:24:50.440Z,52.01
2023-03-16T12:27:30.331Z,51.95
2023-03-16T12:29:58.546Z,52.18
2023-03-16T12:32:53.591Z,51.80
2023-03-16T12:35:41.774Z,52.28
2023-03-16T12:38:23.828Z,52.22
2023-03-16T12:40:56.998Z,51.95
2023-03-16T12:43:27.217Z,52.09
2023-03-16T12:46:09.684Z,51.84
2023-03-16T12:48:56.654Z,52.11
2023-03-16T12:51:37.830Z,51.54
2023-03-16T12:54:06.014Z,51.76
2023-03-16T12:56:36.794Z,51.30
2023-03-16T12:59:07.742Z,51.02
2023-03-16T13:01:45.982Z,50.75
2023-03-16T13:04:21.626Z,50.70
2023-03-16T13:06:51.859Z,50.71
2023-03-16T13:09:25.164Z,50.62
2023-03-16T13:11:53.451Z,50.25
2023-03-16T13:14:40.859Z,50.80
2023-03-16T13:17:27.821Z,50.46
2023-03-16T13:20:06.865Z,50.65
2023-03-16T13:23:07.622Z,50.83
2023-03-16T13:25:44.656Z,50.66
2023-03-16T13:28:16.783Z,50.75
2023-03-16T13:30:49.193Z,50.77
2023-03-16T13:33:28.953Z,50.45
2023-03-16T13:36:00.188Z,50.25
2023-03-16T13:38:29.041Z,49.97
2023-03-16T13:40:58.416Z,50.21
2023-03-16T13:43:30.050Z,50.00
2023-03-16T13:45:56.736Z,49.76
2023-03-16T13:48:23.672Z,49.92
2023-03-16T13:50:57.995Z,49.93
2023-03-16T13:53:28.572Z,50.06
2023-03-16T13:55:57.397Z,50.31
2023-03-16T13:58:35.413Z,49.92
2023-03-16T14:01:07.532Z,50.01
2023-03-16T14:03:38.349Z,49.90
2023-03-16T14:06:06.763Z,49.96
2023-03-16T14:08:34.851Z,49.93
2023-03-16T14:11:02.955Z,49.81
2023-03-16T14:13:29.699Z,49.98
2023-03-16T14:16:00.252Z,49.62
2023-03-16T14:18:34.901Z,49.43
2023-03-16T14:21:08.223Z,49.59
2023-03-16T14:23:40.637Z,49.45
2023-03-16T14:26:13.318Z,49.73
2023-03-16T14:28:41.075Z,49.53
2023-03-16T14:31:13.918Z,49.69
2023-03-16T14:33:46.217Z,49.34
2023-03-16T14:36:18.738Z,49.53
2023-03-16T14:38:48.733Z,49.52
2023-03-16T14:41:27.966Z,49.68
2023-03-16T14:44:01.517Z,49.54
2023-03-16T14:46:42.310Z,49.70
2023-03-16T14:49:19.230Z,49.88
2023-03-16T14:51:47.579Z,49.97
2023-03-16T14:54:17.244Z,50.02
2023-03-16T14:56:51.735Z,49.38
2023-03-16T14:59:21.127Z,49.94
2023-03-16T15:01:52.544Z,49.63
2023-03-16T15:04:41.180Z,50.04
2023-03-16T15:07:26.223Z,50.36
2023-03-16T15:09:54.460Z,50.13
2023-03-16T15:12:24.791Z,50.03
2023-03-16T15:15:12.722Z,49.93
2023-03-16T15:17:39.368Z,49.67
2023-03-16T15:20:10.369Z,49.68
2023-03-16T15:22:39.335Z,49.52
2023-03-16T15:25:37.265Z,49.58
2023-03-16T15:28:16.050Z,49.13
2023-03-16T15:30:44.688Z,49.18
2023-03-16T15:33:12.890Z,48.64
2023-03-16T15:35:41.123Z,48.43
2023-03-16T15:38:15.381Z,48.83
2023-03-16T15:40:44.139Z,48.33
2023-03-16T15:43:12.821Z,48.64
2023-03-16T15:45:39.659Z,48.63
2023-03-16T15:48:07.544Z,49.25
2023-03-16T15:50:37.293Z,48.77
2023-03-16T15:53:30.380Z,49.08
2023-03-16T15:56:13.357Z,49.36
2023-03-16T15:58:45.907Z,49.29
2023-03-16T16:01:24.427Z,49.38
2023-03-16T16:03:52.213Z,49.02
2023-03-16T16:06:19.164Z,49.24
2023-03-16T16:08:46.331Z,49.70
2023-03-16T16:11:16.998Z,49.59
2023-03-16T16:13:45.321Z,49.60
2023-03-16T16:16:14.335Z,49.42
2023-03-16T16:18:41.808Z,49.37
2023-03-16T16:21:16.045Z,49.63
2023-03-16T16:23:43.154Z,49.59
2023-03-16T16:26:49.642Z,49.96
2023-03-16T16:29:27.219Z,49.77
2023-03-16T16:31:56.718Z,50.13
2023-03-16T16:34:25.178Z,50.09
2023-03-16T16:36:52.918Z,49.88
2023-03-16T16:39:21.056Z,50.08
2023-03-16T16:41:49.895Z,50.24
2023-03-16T16:44:22.390Z,50.26
2023-03-16T16:46:53.812Z,50.23
2023-03-16T16:49:28.968Z,50.43
2023-03-16T16:51:56.126Z,50.16
2023-03-16T16:54:29.380Z,50.79
2023-03-16T16:56:58.447Z,50.70
2023-03-16T16:59:29.019Z,50.79
2023-03-16T17:01:56.639Z,50.92
2023-03-16T17:04:28.488Z,50.83
2023-03-16T17:06:59.130Z,50.88
2023-03-16T17:09:30.450Z,50.88
2023-03-16T17:12:01.946Z,51.03
2023-03-16T17:14:31.210Z,51.55
2023-03-16T17:17:02.794Z,51.44
2023-03-16T17:19:33.023Z,51.73
2023-03-16T17:21:59.966Z,51.71
2023-03-16T17:24:30.690Z,51.73
2023-03-16T17:27:00.808Z,51.63
2023-03-16T17:29:35.857Z,51.69
2023-03-16T17:32:08.256Z,51.96
2023-03-16T17:34:35.357Z,52.06
2023-03-16T17:37:02.385Z,52.42
2023-03-16T17:39:34.200Z,52.38
2023-03-16T17:42:18.043Z,52.29
2023-03-16T17:44:47.400Z,52.36
2023-03-16T17:47:21.693Z,52.43
2023-03-16T17:49:49.149Z,52.48
2023-03-16T17:52:18.971Z,52.60
2023-03-16T17:54:47.418Z,53.03
2023-03-16T17:57:19.584Z,52.92
2023-03-16T17:59:51.235Z,52.70
2023-03-16T18:02:54.181Z,52.71
2023-03-16T18:05:25.853Z,52.89
2023-03-16T18:07:54.470Z,53.26
2023-03-16T18:10:28.871Z,53.52
2023-03-16T18:13:03.427Z,53.79
2023-03-16T18:15:35.365Z,53.88
2023-03-16T18:18:04.636Z,54.42
2023-03-16T18:20:37.691Z,54.33
2023-03-16T18:23:19.654Z,54.40
2023-03-16T18:25:51.037Z,54.74
2023-03-16T18:28:18.798Z,55.00
2023-03-16T18:30:47.940Z,55.24
2023-03-16T18:33:23.853Z,55.60
2023-03-16T18:35:55.512Z,55.60
2023-03-16T18:38:29.810Z,56.20
2023-03-16T18:40:57.941Z,56.08
2023-03-16T18:43:27.780Z,56.36
2023-03-16T18:45:55.115Z,56.34
2023-03-16T18:48:33.793Z,56.14
2023-03-16T18:51:01.135Z,56.72
2023-03-16T18:53:30.221Z,56.79
2023-03-16T18:55:57.691Z,56.29
2023-03-16T18:58:25.513Z,56.55
2023-03-16T19:00:59.841Z,56.62
2023-03-16T19:03:35.432Z,57.32
2023-03-16T19:06:02.265Z,57.09
2023-03-16T19:08:29.699Z,57.10
2023-03-16T19:11:02.120Z,57.14
2023-03-16T19:13:29.248Z,57.19
2023-03-16T19:15:57.802Z,56.96
2023-03-16T19:18:26.296Z,57.06
2023-03-16T19:20:54.802Z,56.84
2023-03-16T19:23:33.088Z,57.38
2023-03-16T19:25:59.769Z,56.89
2023-03-16T19:28:34.965Z,56.88
2023-03-16T19:31:04.308Z,57.05
2023-03-16T19:33:31.112Z,57.07
2023-03-16T19:36:00.990Z,57.02
2023-03-16T19:38:27.638Z,57.21
2023-03-16T19:40:59.683Z,57.15
2023-03-16T19:43:27.734Z,57.37
2023-03-16T19:45:56.989Z,57.72
2023-03-16T19:48:31.278Z,57.83
2023-03-16T19:50:57.926Z,57.86
2023-03-16T19:53:25.695Z,57.29
2023-03-16T19:55:56.076Z,57.72
2023-03-16T19:58:25.460Z,58.22
2023-03-16T20:00:54.673Z,58.39
2023-03-16T20:03:21.936Z,58.63
2023-03-16T20:05:52.382Z,58.61
2023-03-16T20:08:27.760Z,58.13
2023-03-16T20:11:02.745Z,58.52
2023-03-16T20:13:31.586Z,58.56
2023-03-16T20:16:01.617Z,58.56
2023-03-16T20:18:29.446Z,58.83
2023-03-16T20:20:56.108Z,58.67
2023-03-16T20:23:24.725Z,58.73
2023-03-16T20:25:53.858Z,58.57
2023-03-16T20:28:28.037Z,58.80
2023-03-16T20:30:54.851Z,58.90
2023-03-16T20:33:24.395Z,58.95
2023-03-16T20:35:54.401Z,59.13
2023-03-16T20:38:23.898Z,59.29
2023-03-16T20:40:52.889Z,58.94
2023-03-16T20:43:29.602Z,58.93
2023-03-16T20:45:59.524Z,59.46
2023-03-16T20:48:27.536Z,59.44
2023-03-16T20:50:56.260Z,59.24
2023-03-16T20:53:23.631Z,59.65
2023-03-16T20:55:51.723Z,59.68
2023-03-16T20:58:21.325Z,59.79
2023-03-16T21:00:53.239Z,59.97
2023-03-16T21:03:26.472Z,59.91
2023-03-16T21:05:54.620Z,60.13
2023-03-16T21:08:21.767Z,60.11
2023-03-16T21:10:50.654Z,60.51
2023-03-16T21:13:19.413Z,60.41
2023-03-16T21:15:47.561Z,60.60
2023-03-16T21:18:19.028Z,60.54
2023-03-16T21:20:47.402Z,61.17
2023-03-16T21:23:20.684Z,61.14
2023-03-16T21:25:54.765Z,61.28
2023-03-16T21:28:24.317Z,60.64
2023-03-16T21:30:55.187Z,61.30
2023-03-16T21:33:27.700Z,61.04
2023-03-16T21:35:58.342Z,61.36
2023-03-16T21:38:28.987Z,61.21
2023-03-16T21:40:56.909Z,61.63
2023-03-16T21:43:26.037Z,61.91
2023-03-16T21:45:56.791Z,61.64
2023-03-16T21:48:37.362Z,61.84
2023-03-16T21:51:16.981Z,61.30
2023-03-16T21:53:44.102Z,61.29
2023-03-16T21:56:18.355Z,61.88
2023-03-16T21:58:45.875Z,62.06
2023-03-16T22:01:25.370Z,61.66
2023-03-16T22:04:17.611Z,61.67
2023-03-16T22:06:46.173Z,61.90
2023-03-16T22:09:20.881Z,61.85
2023-03-16T22:11:47.691Z,62.08
2023-03-16T22:14:14.433Z,62.15
2023-03-16T22:16:41.693Z,62.25
2023-03-16T22:19:13.502Z,62.29
2023-03-16T22:21:44.789Z,62.54
2023-03-16T22:24:23.776Z,62.84
2023-03-16T22:26:51.674Z,62.41
2023-03-16T22:29:20.352Z,62.47
2023-03-16T22:31:50.799Z,62.70
2023-03-16T22:34:27.967Z,62.90
2023-03-16T22:36:55.918Z,62.64
2023-03-16T22:39:23.173Z,63.16
2023-03-16T22:41:52.301Z,62.75
2023-03-16T22:44:24.374Z,63.20
2023-03-16T22:46:51.119Z,62.51
2023-03-16T22:49:30.504Z,63.15
2023-03-16T22:51:57.824Z,62.85
2023-03-16T22:54:28.712Z,63.17
2023-03-16T22:56:55.799Z,62.61
2023-03-16T22:59:27.590Z,62.59
2023-03-16T23:01:54.595Z,62.91
2023-03-16T23:04:30.203Z,63.01
2023-03-16T23:06:57.378Z,62.99
2023-03-16T23:09:26.844Z,62.98
2023-03-16T23:11:54.788Z,62.65
2023-03-16T23:14:24.447Z,63.15
2023-03-16T23:16:52.881Z,62.77
2023-03-16T23:19:30.145Z,62.81
2023-03-16T23:22:03.407Z,63.30
2023-03-16T23:24:30.515Z,63.40
2023-03-16T23:26:58.314Z,63.05
2023-03-16T23:29:26.363Z,63.28
2023-03-16T23:31:53.915Z,63.74
2023-03-16T23:34:23.425Z,63.51
2023-03-16T23:36:51.431Z,63.84
2023-03-16T23:39:18.783Z,63.57
2023-03-16T23:41:48.112Z,63.46
2023-03-16T23:44:21.462Z,63.46
2023-03-16T23:46:48.511Z,63.58
2023-03-16T23:49:22.544Z,64.06
2023-03-16T23:51:51.380Z,63.80
2023-03-16T23:54:24.128Z,64.08
2023-03-16T23:56:51.015Z,64.14
2023-03-16T23:59:19.307Z,63.78
